createdAt,value
2023-04-10T00:00:39.452Z,102108.88
2023-04-10T00:03:07.943Z,102108.00
2023-04-10T00:05:36.442Z,102112.53
2023-04-10T00:08:04.554Z,102109.06
2023-04-10T00:10:34.026Z,102115.94
2023-04-10T00:13:03.676Z,102113.25
2023-04-10T00:15:31.904Z,102108.88
2023-04-10T00:17:59.996Z,102115.94
2023-04-10T00:20:28.214Z,102115.94
2023-04-10T00:22:56.448Z,102049.13
2023-04-10T00:25:24.610Z,102115.09
2023-04-10T00:27:54.392Z,102107.16
2023-04-10T00:30:23.059Z,102108.88
2023-04-10T00:32:51.158Z,102110.59
2023-04-10T00:35:19.325Z,102109.75
2023-04-10T00:37:47.373Z,102116.91
2023-04-10T00:40:15.489Z,102116.91
2023-04-10T00:42:43.607Z,102125.81
2023-04-10T00:45:13.357Z,102136.53
2023-04-10T00:47:41.839Z,102135.66
2023-04-10T00:50:10.582Z,102138.34
2023-04-10T00:52:38.926Z,102140.06
2023-04-10T00:55:08.937Z,102133.97
2023-04-10T00:57:37.322Z,102124.94
2023-04-10T01:00:07.005Z,102126.84
2023-04-10T01:02:36.714Z,102128.59
2023-04-10T01:05:05.374Z,102129.53
2023-04-10T01:07:45.498Z,102037.63
2023-04-10T01:10:19.381Z,102128.59
2023-04-10T01:12:57.216Z,102135.66
2023-04-10T01:15:29.361Z,102131.28
2023-04-10T01:18:05.698Z,102129.34
2023-04-10T01:20:37.002Z,102135.66
2023-04-10T01:23:36.180Z,102130.50
2023-04-10T01:26:06.187Z,102115.03
2023-04-10T01:29:00.311Z,102139.31
2023-04-10T01:31:36.482Z,102138.44
2023-04-10T01:34:08.857Z,102143.91
2023-04-10T01:36:41.759Z,102134.06
2023-04-10T01:39:11.852Z,102148.28
2023-04-10T01:41:42.637Z,102141.41
2023-04-10T01:44:15.852Z,101993.75
2023-04-10T01:46:45.765Z,102158.06
2023-04-10T01:49:15.438Z,102153.66
2023-04-10T01:51:44.100Z,102149.16
2023-04-10T01:54:12.844Z,102138.44
2023-04-10T01:56:42.124Z,102132.22
2023-04-10T01:59:12.777Z,102139.50
2023-04-10T02:01:41.256Z,102133.09
2023-04-10T02:04:09.391Z,102130.50
2023-04-10T02:06:46.087Z,102054.69
2023-04-10T02:09:23.176Z,102133.97
2023-04-10T02:11:58.767Z,102129.53
2023-04-10T02:14:29.672Z,102137.56
2023-04-10T02:16:58.181Z,102119.78
2023-04-10T02:19:28.941Z,102126.03
2023-04-10T02:21:58.140Z,102123.25
2023-04-10T02:24:27.164Z,102117.00
2023-04-10T02:26:55.880Z,102115.19
2023-04-10T02:29:23.880Z,102114.22
2023-04-10T02:31:53.281Z,102107.16
2023-04-10T02:34:21.308Z,102105.44
2023-04-10T02:36:49.368Z,102110.78
2023-04-10T02:39:17.368Z,102108.88
2023-04-10T02:41:46.510Z,102094.06
2023-04-10T02:44:14.686Z,102006.28
2023-04-10T02:46:42.951Z,102092.81
2023-04-10T02:49:12.394Z,102090.22
2023-04-10T02:51:40.573Z,102091.09
2023-04-10T02:54:08.624Z,102092.81
2023-04-10T02:56:36.643Z,102092.81
2023-04-10T02:59:04.825Z,102081.22
2023-04-10T03:01:33.363Z,102082.09
2023-04-10T03:04:03.128Z,102077.69
2023-04-10T03:06:32.638Z,102075.03
2023-04-10T03:09:00.809Z,102066.22
2023-04-10T03:11:29.081Z,102068.78
2023-04-10T03:13:58.311Z,102070.50
2023-04-10T03:16:26.468Z,102076.72
2023-04-10T03:18:55.029Z,102074.03
2023-04-10T03:21:23.163Z,102069.88
2023-04-10T03:23:52.908Z,102076.72
2023-04-10T03:26:21.034Z,102067.91
2023-04-10T03:28:49.052Z,102073.28
2023-04-10T03:31:17.066Z,101994.03
2023-04-10T03:33:45.150Z,102064.31
2023-04-10T03:36:13.199Z,102066.00
2023-04-10T03:38:41.320Z,102061.63
2023-04-10T03:41:11.020Z,102054.44
2023-04-10T03:43:39.021Z,102050.03
2023-04-10T03:46:07.443Z,101982.94
2023-04-10T03:48:35.513Z,102048.22
2023-04-10T03:51:03.912Z,102031.78
2023-04-10T03:53:36.120Z,102045.75
2023-04-10T03:56:04.448Z,102043.91
2023-04-10T03:58:33.862Z,102033.19
2023-04-10T04:01:01.958Z,102037.72
2023-04-10T04:03:30.314Z,102043.28
2023-04-10T04:05:58.614Z,102031.38
2023-04-10T04:08:26.659Z,102028.72
2023-04-10T04:10:54.670Z,102027.75
2023-04-10T04:13:22.695Z,102026.03
2023-04-10T04:15:52.182Z,102021.44
2023-04-10T04:18:20.228Z,102019.69
2023-04-10T04:20:48.353Z,102014.34
2023-04-10T04:23:17.732Z,102007.28
2023-04-10T04:25:46.357Z,102007.28
2023-04-10T04:28:16.185Z,102003.84
2023-04-10T04:30:44.228Z,102009.09
2023-04-10T04:33:13.624Z,102009.97
2023-04-10T04:35:41.876Z,102007.28
2023-04-10T04:38:09.870Z,102004.69
2023-04-10T04:40:37.882Z,102004.59
2023-04-10T04:43:06.004Z,102001.91
2023-04-10T04:45:33.994Z,102007.28
2023-04-10T04:48:02.047Z,102002.78
2023-04-10T04:50:31.531Z,102006.41
2023-04-10T04:53:00.543Z,102002.78
2023-04-10T04:55:28.584Z,101999.34
2023-04-10T04:57:56.612Z,102002.78
2023-04-10T05:00:24.700Z,102001.16
2023-04-10T05:02:52.853Z,102003.63
2023-04-10T05:05:21.106Z,101834.75
2023-04-10T05:07:50.643Z,102004.03
2023-04-10T05:10:18.738Z,102010.94
2023-04-10T05:12:46.767Z,102009.97
2023-04-10T05:15:14.789Z,101990.94
2023-04-10T05:17:42.933Z,102000.94
2023-04-10T05:20:12.182Z,102008.16
2023-04-10T05:22:40.640Z,102008.97
2023-04-10T05:25:10.756Z,102008.97
2023-04-10T05:27:38.825Z,102005.38
2023-04-10T05:30:07.916Z,101998.28
2023-04-10T05:32:35.988Z,102001.91
2023-04-10T05:35:04.069Z,101997.53
2023-04-10T05:37:32.098Z,102001.91
2023-04-10T05:40:00.668Z,101996.56
2023-04-10T05:42:30.483Z,101993.88
2023-04-10T05:44:58.613Z,101991.22
2023-04-10T05:47:26.649Z,101991.22
2023-04-10T05:49:54.809Z,101978.78
2023-04-10T05:52:22.833Z,101979.63
2023-04-10T05:54:51.894Z,101929.41
2023-04-10T05:57:19.917Z,101988.53
2023-04-10T05:59:49.348Z,101982.19
2023-04-10T06:02:17.528Z,101977.81
2023-04-10T06:04:46.704Z,101978.56
2023-04-10T06:07:14.819Z,101972.03
2023-04-10T06:09:42.819Z,101968.38
2023-04-10T06:12:11.916Z,101958.44
2023-04-10T06:14:39.944Z,101964.56
2023-04-10T06:17:09.469Z,101965.28
2023-04-10T06:19:37.603Z,101960.81
2023-04-10T06:22:05.681Z,101961.88
2023-04-10T06:24:33.709Z,101962.94
2023-04-10T06:27:01.761Z,101893.44
2023-04-10T06:29:29.782Z,101962.09
2023-04-10T06:31:58.069Z,101951.59
2023-04-10T06:34:27.614Z,101959.50
2023-04-10T06:36:55.669Z,101963.13
2023-04-10T06:39:23.725Z,101956.94
2023-04-10T06:41:51.713Z,101950.72
2023-04-10T06:44:19.708Z,101951.59
2023-04-10T06:46:47.951Z,101959.72
2023-04-10T06:49:16.052Z,101952.63
2023-04-10T06:51:48.524Z,101876.47
2023-04-10T06:54:16.808Z,101949.84
2023-04-10T06:56:44.803Z,101957.16
2023-04-10T06:59:12.810Z,101956.06
2023-04-10T07:01:40.913Z,101962.28
2023-04-10T07:04:09.031Z,101956.94
2023-04-10T07:06:37.546Z,101955.19
2023-04-10T07:09:06.952Z,101947.94
2023-04-10T07:11:35.009Z,101959.63
2023-04-10T07:14:03.162Z,101951.59
2023-04-10T07:16:31.204Z,101954.25
2023-04-10T07:18:59.321Z,101955.19
2023-04-10T07:21:28.580Z,101945.34
2023-04-10T07:23:56.717Z,101955.19
2023-04-10T07:26:26.652Z,101947.94
2023-04-10T07:28:55.136Z,101941.69
2023-04-10T07:31:24.009Z,101936.34
2023-04-10T07:33:52.145Z,101931.84
2023-04-10T07:36:20.146Z,101941.69
2023-04-10T07:38:48.123Z,101937.22
2023-04-10T07:41:16.124Z,101937.22
2023-04-10T07:43:46.119Z,101793.50
2023-04-10T07:46:14.208Z,101930.16
2023-04-10T07:48:42.322Z,101933.34
2023-04-10T07:51:10.631Z,101929.72
2023-04-10T07:53:38.721Z,101922.41
2023-04-10T07:56:07.827Z,101856.47
2023-04-10T07:58:36.101Z,101919.00
2023-04-10T08:01:05.858Z,101920.81
2023-04-10T08:03:39.741Z,101914.69
2023-04-10T08:06:09.364Z,101911.91
2023-04-10T08:08:38.600Z,101911.91
2023-04-10T08:11:09.975Z,101768.25
2023-04-10T08:13:38.218Z,101914.50
2023-04-10T08:16:08.982Z,101837.22
2023-04-10T08:18:37.091Z,101897.56
2023-04-10T08:21:05.754Z,101895.84
2023-04-10T08:23:33.932Z,101820.41
2023-04-10T08:26:02.229Z,101815.47
2023-04-10T08:28:32.548Z,101892.22
2023-04-10T08:31:00.746Z,101884.19
2023-04-10T08:33:30.402Z,101888.78
2023-04-10T08:35:58.678Z,101881.50
2023-04-10T08:38:27.863Z,101874.19
2023-04-10T08:40:56.026Z,101852.13
2023-04-10T08:43:24.171Z,101881.50
2023-04-10T08:45:53.848Z,101875.94
2023-04-10T08:48:23.395Z,101877.84
2023-04-10T08:50:53.269Z,101822.75
2023-04-10T08:53:25.978Z,101867.34
2023-04-10T08:55:54.325Z,101798.75
2023-04-10T08:58:22.807Z,101861.78
2023-04-10T09:00:51.124Z,101868.22
2023-04-10T09:03:19.935Z,101858.34
2023-04-10T09:05:48.137Z,101852.03
2023-04-10T09:08:17.745Z,101864.66
2023-04-10T09:10:46.116Z,101856.41
2023-04-10T09:13:14.235Z,101776.91
2023-04-10T09:15:58.542Z,101858.13
2023-04-10T09:18:42.740Z,101839.47
2023-04-10T09:21:12.273Z,101802.84
2023-04-10T09:23:43.240Z,101772.19
2023-04-10T09:26:25.377Z,101826.19
2023-04-10T09:29:04.690Z,101827.91
2023-04-10T09:31:34.776Z,101815.47
2023-04-10T09:34:10.734Z,101812.06
2023-04-10T09:36:39.383Z,101821.91
2023-04-10T09:39:10.475Z,101812.28
2023-04-10T09:41:49.827Z,101760.00
2023-04-10T09:44:20.328Z,101804.84
2023-04-10T09:46:49.730Z,101795.22
2023-04-10T09:49:18.389Z,101797.69
2023-04-10T09:51:47.490Z,101789.53
2023-04-10T09:54:17.376Z,101793.09
2023-04-10T09:56:47.330Z,101781.63
2023-04-10T09:59:15.910Z,101688.88
2023-04-10T10:01:44.986Z,101707.72
2023-04-10T10:04:15.816Z,101774.34
2023-04-10T10:06:44.605Z,101774.34
2023-04-10T10:09:12.999Z,101765.53
2023-04-10T10:11:42.519Z,101772.59
2023-04-10T10:14:18.015Z,101778.81
2023-04-10T10:16:51.188Z,101714.16
2023-04-10T10:19:21.688Z,101763.63
2023-04-10T10:21:50.083Z,101757.41
2023-04-10T10:24:20.915Z,101751.16
2023-04-10T10:26:52.819Z,101740.44
2023-04-10T10:29:22.645Z,101735.09
2023-04-10T10:31:51.302Z,101728.03
2023-04-10T10:34:19.989Z,101662.34
2023-04-10T10:36:48.314Z,101728.03
2023-04-10T10:39:30.426Z,101717.31
2023-04-10T10:42:07.125Z,101702.94
2023-04-10T10:44:42.910Z,101719.03
2023-04-10T10:47:17.324Z,101702.94
2023-04-10T10:49:56.592Z,101704.69
2023-04-10T10:52:39.216Z,101702.94
2023-04-10T10:55:38.602Z,101691.41
2023-04-10T10:58:09.459Z,101685.16
2023-04-10T11:01:14.224Z,101672.75
2023-04-10T11:03:44.839Z,101678.94
2023-04-10T11:06:14.376Z,101667.41
2023-04-10T11:08:46.005Z,101663.97
2023-04-10T11:11:17.133Z,101656.69
2023-04-10T11:14:20.064Z,101656.69
2023-04-10T11:16:48.846Z,101549.94
2023-04-10T11:19:22.752Z,101643.28
2023-04-10T11:22:07.508Z,101645.09
2023-04-10T11:25:08.673Z,101640.59
2023-04-10T11:27:46.419Z,101635.34
2023-04-10T11:30:29.574Z,101621.31
2023-04-10T11:32:58.223Z,101551.44
2023-04-10T11:35:27.886Z,101544.13
2023-04-10T11:38:16.716Z,101624.53
2023-04-10T11:41:06.955Z,101603.09
2023-04-10T11:43:35.964Z,101600.53
2023-04-10T11:46:08.015Z,101599.56
2023-04-10T11:48:37.040Z,101596.00
2023-04-10T11:51:12.270Z,101438.69
2023-04-10T11:53:41.099Z,101579.94
2023-04-10T11:56:17.840Z,101579.94
2023-04-10T11:58:46.129Z,101574.59
2023-04-10T12:01:15.726Z,101568.16
2023-04-10T12:03:45.163Z,101488.88
2023-04-10T12:06:14.951Z,101569.00
2023-04-10T12:08:46.073Z,101552.09
2023-04-10T12:11:14.755Z,101556.59
2023-04-10T12:13:42.919Z,101437.09
2023-04-10T12:16:12.136Z,101551.22
2023-04-10T12:18:42.142Z,101546.72
2023-04-10T12:21:10.443Z,101539.53
2023-04-10T12:23:40.152Z,101536.84
2023-04-10T12:26:13.811Z,101534.16
2023-04-10T12:28:43.379Z,101537.72
2023-04-10T12:31:11.718Z,101528.81
2023-04-10T12:33:45.599Z,101536.84
2023-04-10T12:36:23.852Z,101536.72
2023-04-10T12:38:52.037Z,101531.25
2023-04-10T12:41:24.610Z,101528.69
2023-04-10T12:43:53.649Z,101511.91
2023-04-10T12:46:26.890Z,101513.59
2023-04-10T12:48:57.089Z,101501.53
2023-04-10T12:51:43.079Z,101504.47
2023-04-10T12:54:11.608Z,101497.41
2023-04-10T12:56:43.471Z,101492.06
2023-04-10T12:59:11.602Z,101441.72
2023-04-10T13:01:40.627Z,101347.69
2023-04-10T13:04:10.447Z,101339.03
2023-04-10T13:06:45.181Z,101477.91
2023-04-10T13:09:13.828Z,101471.84
2023-04-10T13:11:42.305Z,101402.31
2023-04-10T13:14:11.201Z,101381.34
2023-04-10T13:16:39.544Z,101467.19
2023-04-10T13:19:09.226Z,101458.22
2023-04-10T13:21:37.655Z,101461.84
2023-04-10T13:24:05.891Z,101456.47
2023-04-10T13:26:34.045Z,101368.19
2023-04-10T13:29:02.338Z,101435.06
2023-04-10T13:31:30.739Z,101426.91
2023-04-10T13:33:58.936Z,101424.34
2023-04-10T13:36:28.521Z,101418.16
2023-04-10T13:38:57.003Z,101414.50
2023-04-10T13:41:25.665Z,101410.00
2023-04-10T13:43:54.072Z,101417.03
2023-04-10T13:46:22.397Z,101405.34
2023-04-10T13:48:50.617Z,101402.66
2023-04-10T13:51:18.712Z,101383.19
2023-04-10T13:53:48.216Z,101226.44
2023-04-10T13:56:16.383Z,101383.09
2023-04-10T13:58:47.004Z,101379.53
2023-04-10T14:01:15.337Z,101368.81
2023-04-10T14:03:43.784Z,101376.13
2023-04-10T14:06:12.046Z,101367.13
2023-04-10T14:08:40.154Z,101351.06
2023-04-10T14:11:09.879Z,101343.03
2023-04-10T14:13:38.017Z,101353.75
2023-04-10T14:16:06.612Z,101343.03
2023-04-10T14:18:34.822Z,101268.19
2023-04-10T14:21:02.907Z,101329.63
2023-04-10T14:23:31.107Z,101335.81
2023-04-10T14:25:59.260Z,101334.97
2023-04-10T14:28:29.379Z,101322.53
2023-04-10T14:30:57.478Z,101324.28
2023-04-10T14:33:25.734Z,101198.66
2023-04-10T14:35:54.548Z,101310.88
2023-04-10T14:38:22.650Z,101303.56
2023-04-10T14:40:52.213Z,101275.16
2023-04-10T14:43:21.003Z,101158.34
2023-04-10T14:45:50.512Z,101294.69
2023-04-10T14:48:19.952Z,101274.31
2023-04-10T14:50:48.352Z,101276.88
2023-04-10T14:53:16.398Z,101268.72
2023-04-10T14:55:44.637Z,101177.53
2023-04-10T14:58:12.739Z,101269.59
2023-04-10T15:00:41.162Z,101261.56
2023-04-10T15:03:10.757Z,101253.75
2023-04-10T15:05:38.915Z,101259.75
2023-04-10T15:08:07.085Z,101249.97
2023-04-10T15:10:35.338Z,101241.94
2023-04-10T15:13:03.412Z,101240.25
2023-04-10T15:15:31.496Z,101234.03
2023-04-10T15:17:59.767Z,101225.88
2023-04-10T15:20:29.330Z,101236.59
2023-04-10T15:22:58.600Z,101123.78
2023-04-10T15:25:26.667Z,101166.72
2023-04-10T15:27:56.569Z,101136.28
2023-04-10T15:30:24.935Z,101211.28
2023-04-10T15:32:53.852Z,101200.56
2023-04-10T15:35:22.039Z,101194.22
2023-04-10T15:37:51.597Z,101191.53
2023-04-10T15:40:19.756Z,101186.19
2023-04-10T15:42:47.892Z,101170.09
2023-04-10T15:45:16.108Z,101174.59
2023-04-10T15:47:47.603Z,101061.13
2023-04-10T15:50:15.996Z,101155.72
2023-04-10T15:52:44.112Z,101155.97
2023-04-10T15:55:14.529Z,101075.47
2023-04-10T15:57:42.613Z,101126.38
2023-04-10T16:00:11.587Z,101132.59
2023-04-10T16:02:39.979Z,101121.88
2023-04-10T16:05:09.542Z,101031.69
2023-04-10T16:07:39.244Z,101109.47
2023-04-10T16:10:09.292Z,101020.72
2023-04-10T16:12:39.300Z,101088.03
2023-04-10T16:15:08.416Z,101093.66
2023-04-10T16:17:36.708Z,101090.00
2023-04-10T16:20:07.647Z,101080.97
2023-04-10T16:22:36.955Z,101068.44
2023-04-10T16:25:05.957Z,101074.66
2023-04-10T16:27:34.218Z,101067.44
2023-04-10T16:30:05.999Z,100962.34
2023-04-10T16:32:34.794Z,101052.22
2023-04-10T16:35:02.898Z,101052.22
2023-04-10T16:37:31.367Z,101045.19
2023-04-10T16:40:00.354Z,101036.16
2023-04-10T16:42:28.607Z,101035.28
2023-04-10T16:44:58.309Z,101030.81
2023-04-10T16:47:27.998Z,101027.13
2023-04-10T16:49:56.534Z,100936.25
2023-04-10T16:52:24.636Z,100930.69
2023-04-10T16:54:52.943Z,100945.94
2023-04-10T16:57:22.672Z,100982.56
2023-04-10T16:59:50.940Z,100982.56
2023-04-10T17:02:19.126Z,100985.25
2023-04-10T17:04:48.762Z,100824.50
2023-04-10T17:07:16.842Z,100978.91
2023-04-10T17:09:44.967Z,100968.19
2023-04-10T17:12:13.197Z,100962.84
2023-04-10T17:14:41.368Z,100962.84
2023-04-10T17:17:09.540Z,100962.84
2023-04-10T17:19:38.662Z,100953.84
2023-04-10T17:22:15.585Z,100945.94
2023-04-10T17:24:44.675Z,100952.13
2023-04-10T17:27:13.433Z,100958.47
2023-04-10T17:29:42.772Z,100867.19
2023-04-10T17:32:11.441Z,100952.38
2023-04-10T17:34:39.658Z,100940.56
2023-04-10T17:37:09.194Z,100934.38
2023-04-10T17:39:37.312Z,100929.00
2023-04-10T17:42:05.450Z,100932.69
2023-04-10T17:44:33.636Z,100926.31
2023-04-10T17:47:01.846Z,100909.53
2023-04-10T17:49:29.965Z,100910.25
2023-04-10T17:51:58.119Z,100902.22
2023-04-10T17:54:27.792Z,100907.56
2023-04-10T17:56:56.665Z,100890.50
2023-04-10T17:59:24.768Z,100886.16
2023-04-10T18:01:53.068Z,100882.47
2023-04-10T18:04:21.458Z,100879.78
2023-04-10T18:06:49.628Z,100788.31
2023-04-10T18:09:17.793Z,100866.13
2023-04-10T18:11:50.830Z,100866.88
2023-04-10T18:14:19.031Z,100709.69
2023-04-10T18:16:47.402Z,100855.16
2023-04-10T18:19:15.565Z,100848.13
2023-04-10T18:21:44.066Z,100857.00
2023-04-10T18:24:12.265Z,100845.69
2023-04-10T18:26:40.391Z,100845.69
2023-04-10T18:29:09.933Z,100848.38
2023-04-10T18:31:38.034Z,100765.47
2023-04-10T18:34:08.340Z,100846.69
2023-04-10T18:36:37.001Z,100762.72
2023-04-10T18:39:06.042Z,100830.63
2023-04-10T18:41:34.167Z,100819.91
2023-04-10T18:44:05.278Z,100823.53
2023-04-10T18:46:35.652Z,100823.53
2023-04-10T18:49:03.941Z,100813.34
2023-04-10T18:51:35.272Z,100816.50
2023-04-10T18:54:03.793Z,100817.34
2023-04-10T18:56:32.073Z,100807.47
2023-04-10T18:59:00.494Z,100752.28
2023-04-10T19:01:29.189Z,100800.41
2023-04-10T19:03:59.181Z,100807.47
2023-04-10T19:06:28.121Z,100719.22
2023-04-10T19:08:56.821Z,100803.81
2023-04-10T19:11:24.886Z,100787.75
2023-04-10T19:13:53.379Z,100796.75
2023-04-10T19:16:21.705Z,100786.91
2023-04-10T19:18:50.257Z,100786.03
2023-04-10T19:21:20.112Z,100741.69
2023-04-10T19:23:49.676Z,100671.44
2023-04-10T19:26:20.012Z,100783.22
2023-04-10T19:28:48.197Z,100643.53
2023-04-10T19:31:16.472Z,100772.50
2023-04-10T19:33:44.663Z,100773.38
2023-04-10T19:36:12.880Z,100771.69
2023-04-10T19:38:44.577Z,100767.16
2023-04-10T19:41:16.232Z,100613.09
2023-04-10T19:43:44.815Z,100759.25
2023-04-10T19:46:19.428Z,100746.84
2023-04-10T19:48:47.890Z,100745.84
2023-04-10T19:51:16.256Z,100751.09
2023-04-10T19:53:45.821Z,100738.81
2023-04-10T19:56:14.074Z,100734.19
2023-04-10T19:58:43.351Z,100731.50
2023-04-10T20:01:13.260Z,100723.47
2023-04-10T20:03:42.066Z,100594.59
2023-04-10T20:06:10.494Z,100721.75
2023-04-10T20:08:38.617Z,100718.09
2023-04-10T20:11:09.594Z,100718.09
2023-04-10T20:13:39.370Z,100710.06
2023-04-10T20:16:08.740Z,100640.81
2023-04-10T20:18:37.263Z,100705.69
2023-04-10T20:21:07.959Z,100704.00
2023-04-10T20:23:36.293Z,100687.91
2023-04-10T20:26:04.573Z,100688.91
2023-04-10T20:28:34.074Z,100683.56
2023-04-10T20:31:02.195Z,100673.53
2023-04-10T20:33:30.345Z,100667.50
2023-04-10T20:35:58.586Z,100668.19
2023-04-10T20:38:26.675Z,100645.06
2023-04-10T20:40:55.017Z,100653.81
2023-04-10T20:43:23.170Z,100655.78
2023-04-10T20:45:52.696Z,100645.06
2023-04-10T20:48:21.125Z,100632.66
2023-04-10T20:50:49.887Z,100638.72
2023-04-10T20:53:17.998Z,100641.38
2023-04-10T20:55:46.381Z,100630.69
2023-04-10T20:58:14.660Z,100620.81
2023-04-10T21:00:42.859Z,100619.97
2023-04-10T21:03:12.695Z,100574.78
2023-04-10T21:05:41.816Z,100616.31
2023-04-10T21:08:10.580Z,100605.59
2023-04-10T21:10:44.061Z,100598.53
2023-04-10T21:13:14.032Z,100600.25
2023-04-10T21:15:42.282Z,100594.03
2023-04-10T21:18:10.566Z,100582.47
2023-04-10T21:20:40.679Z,100582.47
2023-04-10T21:23:08.739Z,100569.06
2023-04-10T21:25:37.293Z,100571.75
2023-04-10T21:28:05.911Z,100564.72
2023-04-10T21:30:34.047Z,100555.69
2023-04-10T21:33:02.198Z,100541.59
2023-04-10T21:35:30.394Z,100555.69
2023-04-10T21:38:02.140Z,100545.09
2023-04-10T21:40:34.280Z,100539.19
2023-04-10T21:43:02.907Z,100540.47
2023-04-10T21:45:31.229Z,100462.03
2023-04-10T21:48:00.518Z,100528.88
2023-04-10T21:50:28.745Z,100539.59
2023-04-10T21:52:56.938Z,100525.53
2023-04-10T21:55:26.437Z,100520.84
2023-04-10T21:57:54.494Z,100510.13
2023-04-10T22:00:23.216Z,100500.44
2023-04-10T22:02:51.911Z,100359.28
2023-04-10T22:05:20.424Z,100496.75
2023-04-10T22:07:48.526Z,100420.66
2023-04-10T22:10:16.687Z,100485.34
2023-04-10T22:12:48.460Z,100481.97
2023-04-10T22:15:16.981Z,100471.97
2023-04-10T22:17:45.124Z,100471.97
2023-04-10T22:20:13.570Z,100369.34
2023-04-10T22:22:41.712Z,100449.53
2023-04-10T22:25:10.606Z,100445.84
2023-04-10T22:27:38.778Z,100448.53
2023-04-10T22:30:10.244Z,100432.47
2023-04-10T22:32:38.507Z,100428.97
2023-04-10T22:35:07.867Z,100420.06
2023-04-10T22:37:35.964Z,100420.06
2023-04-10T22:40:04.187Z,100321.75
2023-04-10T22:42:32.283Z,100409.34
2023-04-10T22:45:00.464Z,100394.97
2023-04-10T22:47:30.210Z,100400.31
2023-04-10T22:49:58.317Z,100393.28
2023-04-10T22:52:26.432Z,100394.44
2023-04-10T22:54:54.567Z,100402.31
2023-04-10T22:57:22.673Z,100323.00
2023-04-10T22:59:50.841Z,100289.34
2023-04-10T23:02:19.079Z,100221.47
2023-04-10T23:04:48.817Z,100376.22
2023-04-10T23:07:16.971Z,100350.44
2023-04-10T23:09:45.492Z,100270.63
2023-04-10T23:12:13.615Z,100343.41
2023-04-10T23:14:41.767Z,100339.72
2023-04-10T23:17:09.951Z,100339.72
2023-04-10T23:19:38.255Z,100332.69
2023-04-10T23:22:07.836Z,100320.97
2023-04-10T23:24:35.994Z,100325.34
2023-04-10T23:27:06.874Z,100316.63
2023-04-10T23:29:35.091Z,100216.41
2023-04-10T23:32:03.237Z,100152.22
2023-04-10T23:34:31.409Z,100296.88
2023-04-10T23:36:59.659Z,100290.50
2023-04-10T23:39:29.252Z,100144.94
2023-04-10T23:41:57.795Z,100287.84
2023-04-10T23:44:26.168Z,100282.47
2023-04-10T23:46:54.343Z,100270.09
2023-04-10T23:49:22.570Z,100263.59
2023-04-10T23:51:50.780Z,100261.91
2023-04-10T23:54:18.991Z,100193.81
2023-04-10T23:56:48.516Z,100255.69
2023-04-10T23:59:17.142Z,100244.97
